sensor_id;sensor_type;location;lat;lon;timestamp;pressure;altitude;pressure_sealevel;temperature;humidity
44872;BME280;30602;51.060;17.226;2023-03-07T00:01:55;100284.96;;;0.68;100.00
44872;BME280;30602;51.060;17.226;2023-03-07T00:05:42;100274.12;;;0.60;100.00
44872;BME280;30602;51.060;17.226;2023-03-07T00:10:05;100278.77;;;0.62;100.00
44872;BME280;30602;51.060;17.226;2023-03-07T00:13:47;100277.40;;;0.66;100.00
44872;BME280;30602;51.060;17.226;2023-03-07T00:17:27;100263.67;;;0.46;100.00
44872;BME280;30602;51.060;17.226;2023-03-07T00:21:01;100281.82;;;0.52;100.00
44872;BME280;30602;51.060;17.226;2023-03-07T00:24:28;100280.20;;;0.46;100.00
44872;BME280;30602;51.060;17.226;2023-03-07T00:28:00;100280.05;;;0.44;100.00
44872;BME280;30602;51.060;17.226;2023-03-07T00:31:27;100281.59;;;0.44;100.00
44872;BME280;30602;51.060;17.226;2023-03-07T00:35:37;100276.45;;;0.38;100.00
44872;BME280;30602;51.060;17.226;2023-03-07T00:39:43;100276.70;;;0.40;100.00
44872;BME280;30602;51.060;17.226;2023-03-07T00:43:28;100269.99;;;0.40;100.00
44872;BME280;30602;51.060;17.226;2023-03-07T00:47:02;100264.20;;;0.39;100.00
44872;BME280;30602;51.060;17.226;2023-03-07T00:50:33;100270.11;;;0.29;100.00
44872;BME280;30602;51.060;17.226;2023-03-07T00:53:58;100263.93;;;0.30;100.00
44872;BME280;30602;51.060;17.226;2023-03-07T00:57:43;100257.69;;;0.36;100.00
44872;BME280;30602;51.060;17.226;2023-03-07T01:01:31;100246.65;;;0.34;100.00
44872;BME280;30602;51.060;17.226;2023-03-07T01:04:57;100251.00;;;0.43;100.00
44872;BME280;30602;51.060;17.226;2023-03-07T01:09:02;100245.57;;;0.44;100.00
44872;BME280;30602;51.060;17.226;2023-03-07T01:13:13;100246.12;;;0.56;100.00
44872;BME280;30602;51.060;17.226;2023-03-07T01:16:48;100239.27;;;0.60;100.00
44872;BME280;30602;51.060;17.226;2023-03-07T01:20:24;100231.75;;;0.59;100.00
44872;BME280;30602;51.060;17.226;2023-03-07T01:23:56;100228.17;;;0.53;100.00
44872;BME280;30602;51.060;17.226;2023-03-07T01:32:15;100217.54;;;0.46;100.00
44872;BME280;30602;51.060;17.226;2023-03-07T01:35:39;100213.59;;;0.41;100.00
44872;BME280;30602;51.060;17.226;2023-03-07T01:39:25;100207.19;;;0.34;100.00
44872;BME280;30602;51.060;17.226;2023-03-07T01:42:50;100204.30;;;0.27;100.00
44872;BME280;30602;51.060;17.226;2023-03-07T01:50:12;100192.88;;;0.20;100.00
44872;BME280;30602;51.060;17.226;2023-03-07T01:54:12;100196.35;;;0.17;100.00
44872;BME280;30602;51.060;17.226;2023-03-07T01:57:39;100187.55;;;0.15;100.00
44872;BME280;30602;51.060;17.226;2023-03-07T02:05:33;100184.73;;;0.12;100.00
44872;BME280;30602;51.060;17.226;2023-03-07T02:09:16;100183.16;;;0.11;100.00
44872;BME280;30602;51.060;17.226;2023-03-07T02:13:06;100189.98;;;0.11;100.00
44872;BME280;30602;51.060;17.226;2023-03-07T02:16:38;100183.51;;;-0.02;100.00
44872;BME280;30602;51.060;17.226;2023-03-07T02:29:08;100180.55;;;0.09;100.00
44872;BME280;30602;51.060;17.226;2023-03-07T02:33:05;100171.12;;;0.06;100.00
44872;BME280;30602;51.060;17.226;2023-03-07T02:41:00;100171.48;;;0.03;100.00
44872;BME280;30602;51.060;17.226;2023-03-07T02:42:59;100170.62;;;0.11;100.00
44872;BME280;30602;51.060;17.226;2023-03-07T02:46:50;100168.70;;;0.16;100.00
44872;BME280;30602;51.060;17.226;2023-03-07T02:50:13;100162.91;;;0.06;100.00
44872;BME280;30602;51.060;17.226;2023-03-07T02:53:41;100158.55;;;-0.02;100.00
44872;BME280;30602;51.060;17.226;2023-03-07T02:57:24;100154.38;;;-0.05;100.00
44872;BME280;30602;51.060;17.226;2023-03-07T03:01:38;100139.44;;;-0.14;100.00
44872;BME280;30602;51.060;17.226;2023-03-07T03:05:01;100143.66;;;-0.08;100.00
44872;BME280;30602;51.060;17.226;2023-03-07T03:08:30;100148.20;;;-0.20;100.00
44872;BME280;30602;51.060;17.226;2023-03-07T03:12:15;100144.95;;;-0.34;100.00
44872;BME280;30602;51.060;17.226;2023-03-07T03:15:39;100143.52;;;-0.34;100.00
44872;BME280;30602;51.060;17.226;2023-03-07T03:19:36;100131.34;;;-0.48;100.00
44872;BME280;30602;51.060;17.226;2023-03-07T03:23:13;100140.99;;;-0.43;100.00
44872;BME280;30602;51.060;17.226;2023-03-07T03:26:55;100136.95;;;-0.44;100.00
44872;BME280;30602;51.060;17.226;2023-03-07T03:30:22;100140.23;;;-0.47;100.00
44872;BME280;30602;51.060;17.226;2023-03-07T03:37:47;100132.40;;;-0.62;100.00
44872;BME280;30602;51.060;17.226;2023-03-07T03:41:15;100126.02;;;-0.62;100.00
44872;BME280;30602;51.060;17.226;2023-03-07T03:44:50;100116.73;;;-0.66;100.00
44872;BME280;30602;51.060;17.226;2023-03-07T03:49:21;100113.98;;;-0.68;100.00
44872;BME280;30602;51.060;17.226;2023-03-07T03:53:05;100109.84;;;-0.68;100.00
44872;BME280;30602;51.060;17.226;2023-03-07T03:56:33;100106.52;;;-0.55;100.00
44872;BME280;30602;51.060;17.226;2023-03-07T04:00:17;100104.30;;;-0.54;100.00
44872;BME280;30602;51.060;17.226;2023-03-07T04:03:48;100105.82;;;-0.53;100.00
44872;BME280;30602;51.060;17.226;2023-03-07T04:07:32;100104.04;;;-0.54;100.00
44872;BME280;30602;51.060;17.226;2023-03-07T04:11:08;100098.46;;;-0.44;100.00
44872;BME280;30602;51.060;17.226;2023-03-07T04:14:59;100099.11;;;-0.38;100.00
44872;BME280;30602;51.060;17.226;2023-03-07T04:18:59;100087.37;;;-0.38;100.00
44872;BME280;30602;51.060;17.226;2023-03-07T04:23:11;100085.91;;;-0.38;100.00
44872;BME280;30602;51.060;17.226;2023-03-07T04:27:07;100085.02;;;-0.36;100.00
44872;BME280;30602;51.060;17.226;2023-03-07T04:30:55;100092.91;;;-0.41;100.00
44872;BME280;30602;51.060;17.226;2023-03-07T04:35:18;100086.99;;;-0.41;100.00
44872;BME280;30602;51.060;17.226;2023-03-07T04:38:59;100086.37;;;-0.38;100.00
44872;BME280;30602;51.060;17.226;2023-03-07T04:42:24;100081.10;;;-0.38;100.00
44872;BME280;30602;51.060;17.226;2023-03-07T04:45:59;100077.30;;;-0.39;100.00
44872;BME280;30602;51.060;17.226;2023-03-07T04:49:31;100071.52;;;-0.41;100.00
44872;BME280;30602;51.060;17.226;2023-03-07T04:53:06;100064.46;;;-0.36;100.00
44872;BME280;30602;51.060;17.226;2023-03-07T04:56:59;100059.89;;;-0.31;100.00
44872;BME280;30602;51.060;17.226;2023-03-07T05:00:51;100037.89;;;-0.33;100.00
44872;BME280;30602;51.060;17.226;2023-03-07T05:04:53;100054.00;;;-0.18;100.00
44872;BME280;30602;51.060;17.226;2023-03-07T05:08:38;100048.79;;;-0.11;100.00
44872;BME280;30602;51.060;17.226;2023-03-07T05:12:25;100043.44;;;-0.06;100.00
44872;BME280;30602;51.060;17.226;2023-03-07T05:15:54;100033.48;;;-0.03;100.00
44872;BME280;30602;51.060;17.226;2023-03-07T05:19:38;100027.36;;;-0.03;100.00
44872;BME280;30602;51.060;17.226;2023-03-07T05:23:26;100027.06;;;-0.01;100.00
44872;BME280;30602;51.060;17.226;2023-03-07T05:27:23;100027.78;;;-0.04;100.00
44872;BME280;30602;51.060;17.226;2023-03-07T05:31:01;100023.95;;;0.06;100.00
44872;BME280;30602;51.060;17.226;2023-03-07T05:34:31;100025.28;;;0.05;100.00
44872;BME280;30602;51.060;17.226;2023-03-07T05:38:13;100026.75;;;0.03;100.00
44872;BME280;30602;51.060;17.226;2023-03-07T05:41:53;100010.73;;;-0.17;100.00
44872;BME280;30602;51.060;17.226;2023-03-07T05:45:18;100018.22;;;-0.08;100.00
44872;BME280;30602;51.060;17.226;2023-03-07T05:48:46;100017.20;;;-0.13;100.00
44872;BME280;30602;51.060;17.226;2023-03-07T05:52:30;100002.30;;;-0.13;100.00
44872;BME280;30602;51.060;17.226;2023-03-07T05:56:33;100007.37;;;-0.03;100.00
44872;BME280;30602;51.060;17.226;2023-03-07T06:00:31;99998.98;;;-0.02;100.00
44872;BME280;30602;51.060;17.226;2023-03-07T06:04:01;99997.52;;;0.04;100.00
44872;BME280;30602;51.060;17.226;2023-03-07T06:07:46;99996.73;;;0.07;100.00
44872;BME280;30602;51.060;17.226;2023-03-07T06:11:49;99994.17;;;0.03;100.00
44872;BME280;30602;51.060;17.226;2023-03-07T06:15:41;99983.92;;;0.00;100.00
44872;BME280;30602;51.060;17.226;2023-03-07T06:19:19;99992.23;;;0.20;100.00
44872;BME280;30602;51.060;17.226;2023-03-07T06:23:06;99989.01;;;0.26;100.00
44872;BME280;30602;51.060;17.226;2023-03-07T06:26:29;99988.34;;;0.34;100.00
44872;BME280;30602;51.060;17.226;2023-03-07T06:30:15;99987.35;;;0.41;100.00
44872;BME280;30602;51.060;17.226;2023-03-07T06:33:56;99984.21;;;0.52;100.00
44872;BME280;30602;51.060;17.226;2023-03-07T06:37:32;99982.70;;;0.56;99.99
44872;BME280;30602;51.060;17.226;2023-03-07T06:42:02;99979.35;;;0.64;99.55
44872;BME280;30602;51.060;17.226;2023-03-07T06:46:43;99970.34;;;0.65;99.00
44872;BME280;30602;51.060;17.226;2023-03-07T06:50:31;99975.02;;;0.62;98.41
44872;BME280;30602;51.060;17.226;2023-03-07T06:54:47;99963.97;;;0.68;98.92
44872;BME280;30602;51.060;17.226;2023-03-07T06:59:01;99961.77;;;0.77;98.64
44872;BME280;30602;51.060;17.226;2023-03-07T07:02:55;99958.21;;;0.91;98.91
44872;BME280;30602;51.060;17.226;2023-03-07T07:06:17;99957.04;;;1.06;98.70
44872;BME280;30602;51.060;17.226;2023-03-07T07:09:44;99950.08;;;1.13;98.29
44872;BME280;30602;51.060;17.226;2023-03-07T07:17:30;99943.73;;;1.39;97.15
44872;BME280;30602;51.060;17.226;2023-03-07T07:21:18;99942.38;;;1.51;96.68
44872;BME280;30602;51.060;17.226;2023-03-07T07:24:43;99939.46;;;1.55;96.68
44872;BME280;30602;51.060;17.226;2023-03-07T07:28:51;99933.46;;;1.69;96.16
44872;BME280;30602;51.060;17.226;2023-03-07T07:32:26;99927.36;;;1.78;95.27
44872;BME280;30602;51.060;17.226;2023-03-07T07:40:01;99920.24;;;1.99;94.11
44872;BME280;30602;51.060;17.226;2023-03-07T07:43:29;99920.17;;;2.14;93.95
44872;BME280;30602;51.060;17.226;2023-03-07T07:47:00;99924.63;;;2.27;93.50
44872;BME280;30602;51.060;17.226;2023-03-07T07:50:54;99922.59;;;2.40;93.02
44872;BME280;30602;51.060;17.226;2023-03-07T07:54:22;99919.30;;;2.49;91.34
44872;BME280;30602;51.060;17.226;2023-03-07T07:57:49;99908.27;;;2.66;91.58
44872;BME280;30602;51.060;17.226;2023-03-07T08:01:24;99906.97;;;2.74;90.48
44872;BME280;30602;51.060;17.226;2023-03-07T08:04:50;99900.06;;;2.89;90.20
44872;BME280;30602;51.060;17.226;2023-03-07T08:08:22;99895.45;;;2.99;89.75
44872;BME280;30602;51.060;17.226;2023-03-07T08:11:51;99888.41;;;3.11;89.65
44872;BME280;30602;51.060;17.226;2023-03-07T08:15:20;99862.05;;;3.15;89.37
44872;BME280;30602;51.060;17.226;2023-03-07T08:19:03;99873.17;;;3.41;88.40
44872;BME280;30602;51.060;17.226;2023-03-07T08:22:27;99872.19;;;3.54;87.26
44872;BME280;30602;51.060;17.226;2023-03-07T08:26:22;99866.63;;;3.59;86.79
44872;BME280;30602;51.060;17.226;2023-03-07T08:29:48;99865.92;;;3.82;86.26
44872;BME280;30602;51.060;17.226;2023-03-07T08:33:13;99858.66;;;3.90;85.26
44872;BME280;30602;51.060;17.226;2023-03-07T08:37:12;99854.21;;;4.07;85.17
44872;BME280;30602;51.060;17.226;2023-03-07T08:40:35;99852.09;;;4.21;82.99
44872;BME280;30602;51.060;17.226;2023-03-07T08:43:58;99846.49;;;4.31;81.49
44872;BME280;30602;51.060;17.226;2023-03-07T08:47:41;99847.69;;;4.45;81.01
44872;BME280;30602;51.060;17.226;2023-03-07T08:51:23;99837.63;;;4.62;79.63
44872;BME280;30602;51.060;17.226;2023-03-07T08:59:25;99840.96;;;4.80;77.89
44872;BME280;30602;51.060;17.226;2023-03-07T09:02:45;99851.55;;;4.91;76.91
44872;BME280;30602;51.060;17.226;2023-03-07T09:10:29;99839.64;;;5.11;73.91
44872;BME280;30602;51.060;17.226;2023-03-07T09:13:55;99841.84;;;4.93;72.09
44872;BME280;30602;51.060;17.226;2023-03-07T09:17:39;99837.35;;;4.96;72.18
44872;BME280;30602;51.060;17.226;2023-03-07T09:21:13;99828.57;;;5.25;73.08
44872;BME280;30602;51.060;17.226;2023-03-07T09:25:06;99827.88;;;5.34;70.90
44872;BME280;30602;51.060;17.226;2023-03-07T09:29:08;99813.98;;;5.24;70.57
44872;BME280;30602;51.060;17.226;2023-03-07T09:37:11;99817.62;;;5.49;67.69
44872;BME280;30602;51.060;17.226;2023-03-07T09:44:44;99798.63;;;5.94;67.97
44872;BME280;30602;51.060;17.226;2023-03-07T09:52:06;99798.40;;;5.98;66.40
44872;BME280;30602;51.060;17.226;2023-03-07T09:55:32;99794.68;;;5.93;65.57
44872;BME280;30602;51.060;17.226;2023-03-07T10:07:15;99803.96;;;5.72;67.54
44872;BME280;30602;51.060;17.226;2023-03-07T10:35:06;99786.81;;;5.75;65.55
44872;BME280;30602;51.060;17.226;2023-03-07T10:42:42;99784.53;;;5.73;66.45
44872;BME280;30602;51.060;17.226;2023-03-07T10:46:33;99789.20;;;5.76;66.99
44872;BME280;30602;51.060;17.226;2023-03-07T10:50:30;99782.59;;;5.78;67.34
44872;BME280;30602;51.060;17.226;2023-03-07T10:54:32;99778.20;;;5.91;67.48
44872;BME280;30602;51.060;17.226;2023-03-07T11:10:30;99766.91;;;6.06;67.17
44872;BME280;30602;51.060;17.226;2023-03-07T11:14:16;99759.70;;;5.95;65.96
44872;BME280;30602;51.060;17.226;2023-03-07T11:18:25;99755.59;;;5.86;66.47
44872;BME280;30602;51.060;17.226;2023-03-07T11:25:41;99745.31;;;5.74;66.90
44872;BME280;30602;51.060;17.226;2023-03-07T11:29:36;99745.16;;;5.76;66.82
44872;BME280;30602;51.060;17.226;2023-03-07T11:33:28;99740.88;;;5.80;66.58
44872;BME280;30602;51.060;17.226;2023-03-07T11:40:48;99735.99;;;5.82;66.57
44872;BME280;30602;51.060;17.226;2023-03-07T11:45:05;99733.36;;;5.79;66.62
44872;BME280;30602;51.060;17.226;2023-03-07T12:01:43;99718.55;;;5.92;67.55
44872;BME280;30602;51.060;17.226;2023-03-07T12:29:40;99678.47;;;6.60;66.10
44872;BME280;30602;51.060;17.226;2023-03-07T12:44:43;99674.87;;;6.45;65.61
44872;BME280;30602;51.060;17.226;2023-03-07T13:00:11;99658.71;;;6.46;66.59
44872;BME280;30602;51.060;17.226;2023-03-07T13:08:05;99657.45;;;6.64;64.70
44872;BME280;30602;51.060;17.226;2023-03-07T13:26:34;99651.20;;;6.43;65.40
44872;BME280;30602;51.060;17.226;2023-03-07T13:30:31;99644.00;;;6.41;66.42
44872;BME280;30602;51.060;17.226;2023-03-07T13:49:11;99639.80;;;6.62;68.29
44872;BME280;30602;51.060;17.226;2023-03-07T13:53:09;99635.20;;;6.64;68.28
44872;BME280;30602;51.060;17.226;2023-03-07T13:56:35;99630.79;;;6.64;67.71
44872;BME280;30602;51.060;17.226;2023-03-07T14:00:22;99614.67;;;6.68;68.10
44872;BME280;30602;51.060;17.226;2023-03-07T14:08:58;99612.89;;;6.59;68.45
44872;BME280;30602;51.060;17.226;2023-03-07T14:17:10;99599.12;;;6.50;67.96
44872;BME280;30602;51.060;17.226;2023-03-07T14:24:30;99596.37;;;6.53;67.82
44872;BME280;30602;51.060;17.226;2023-03-07T14:32:23;99589.01;;;6.50;67.83
44872;BME280;30602;51.060;17.226;2023-03-07T14:35:45;99588.25;;;6.45;67.74
44872;BME280;30602;51.060;17.226;2023-03-07T14:39:13;99588.29;;;6.40;67.88
44872;BME280;30602;51.060;17.226;2023-03-07T14:43:06;99568.46;;;6.32;67.44
44872;BME280;30602;51.060;17.226;2023-03-07T14:51:18;99578.33;;;6.47;67.46
44872;BME280;30602;51.060;17.226;2023-03-07T14:54:50;99569.92;;;6.48;67.22
44872;BME280;30602;51.060;17.226;2023-03-07T14:58:27;99578.56;;;6.48;67.62
44872;BME280;30602;51.060;17.226;2023-03-07T15:02:23;99568.18;;;6.42;67.33
44872;BME280;30602;51.060;17.226;2023-03-07T15:06:12;99571.59;;;6.41;67.46
44872;BME280;30602;51.060;17.226;2023-03-07T15:10:15;99569.05;;;6.44;67.85
44872;BME280;30602;51.060;17.226;2023-03-07T15:13:47;99567.81;;;6.44;67.90
44872;BME280;30602;51.060;17.226;2023-03-07T15:17:36;99563.71;;;6.41;68.60
44872;BME280;30602;51.060;17.226;2023-03-07T15:21:25;99565.28;;;6.36;68.50
44872;BME280;30602;51.060;17.226;2023-03-07T15:24:52;99561.52;;;6.34;68.89
44872;BME280;30602;51.060;17.226;2023-03-07T15:31:50;99555.03;;;6.33;69.19
44872;BME280;30602;51.060;17.226;2023-03-07T15:36:06;99552.20;;;6.34;69.51
44872;BME280;30602;51.060;17.226;2023-03-07T15:44:18;99548.66;;;6.25;70.82
44872;BME280;30602;51.060;17.226;2023-03-07T15:51:52;99541.98;;;6.28;71.98
44872;BME280;30602;51.060;17.226;2023-03-07T16:02:41;99530.38;;;6.08;72.39
44872;BME280;30602;51.060;17.226;2023-03-07T16:06:44;99528.05;;;6.06;72.42
44872;BME280;30602;51.060;17.226;2023-03-07T16:10:07;99522.31;;;6.04;72.31
44872;BME280;30602;51.060;17.226;2023-03-07T16:13:43;99521.84;;;5.99;72.33
44872;BME280;30602;51.060;17.226;2023-03-07T16:21:01;99525.98;;;5.88;72.22
44872;BME280;30602;51.060;17.226;2023-03-07T16:24:26;99522.73;;;5.86;72.23
44872;BME280;30602;51.060;17.226;2023-03-07T16:31:54;99523.97;;;5.88;72.09
44872;BME280;30602;51.060;17.226;2023-03-07T16:36:16;99524.93;;;5.90;72.26
44872;BME280;30602;51.060;17.226;2023-03-07T16:40:13;99525.98;;;5.93;71.22
44872;BME280;30602;51.060;17.226;2023-03-07T16:43:36;99528.86;;;5.92;71.31
44872;BME280;30602;51.060;17.226;2023-03-07T16:47:28;99532.27;;;5.84;70.90
44872;BME280;30602;51.060;17.226;2023-03-07T16:50:52;99530.29;;;5.81;70.87
44872;BME280;30602;51.060;17.226;2023-03-07T16:54:34;99532.17;;;5.74;70.38
44872;BME280;30602;51.060;17.226;2023-03-07T16:58:31;99537.13;;;5.73;70.36
44872;BME280;30602;51.060;17.226;2023-03-07T17:01:56;99535.43;;;5.74;70.12
44872;BME280;30602;51.060;17.226;2023-03-07T17:05:47;99536.29;;;5.70;70.00
44872;BME280;30602;51.060;17.226;2023-03-07T17:09:40;99540.11;;;5.71;70.47
44872;BME280;30602;51.060;17.226;2023-03-07T17:14:07;99540.58;;;5.74;70.50
44872;BME280;30602;51.060;17.226;2023-03-07T17:17:53;99543.63;;;5.76;70.24
44872;BME280;30602;51.060;17.226;2023-03-07T17:21:33;99549.81;;;5.64;70.80
44872;BME280;30602;51.060;17.226;2023-03-07T17:25:25;99553.38;;;5.62;71.27
44872;BME280;30602;51.060;17.226;2023-03-07T17:29:29;99551.92;;;5.59;71.11
44872;BME280;30602;51.060;17.226;2023-03-07T17:32:54;99551.94;;;5.54;71.12
44872;BME280;30602;51.060;17.226;2023-03-07T17:37:07;99551.65;;;5.52;71.05
44872;BME280;30602;51.060;17.226;2023-03-07T17:40:54;99557.83;;;5.50;70.87
44872;BME280;30602;51.060;17.226;2023-03-07T17:44:38;99558.04;;;5.51;70.81
44872;BME280;30602;51.060;17.226;2023-03-07T17:48:05;99559.51;;;5.47;70.63
44872;BME280;30602;51.060;17.226;2023-03-07T17:51:25;99565.26;;;5.43;70.71
44872;BME280;30602;51.060;17.226;2023-03-07T17:55:09;99563.38;;;5.48;70.43
44872;BME280;30602;51.060;17.226;2023-03-07T17:58:41;99562.08;;;5.58;70.23
44872;BME280;30602;51.060;17.226;2023-03-07T18:03:03;99559.15;;;5.56;69.83
44872;BME280;30602;51.060;17.226;2023-03-07T18:06:48;99547.19;;;5.54;69.65
44872;BME280;30602;51.060;17.226;2023-03-07T18:10:36;99553.73;;;5.48;69.61
44872;BME280;30602;51.060;17.226;2023-03-07T18:14:41;99555.66;;;5.47;69.65
44872;BME280;30602;51.060;17.226;2023-03-07T18:18:08;99553.13;;;5.44;69.58
44872;BME280;30602;51.060;17.226;2023-03-07T18:21:32;99551.84;;;5.44;69.55
44872;BME280;30602;51.060;17.226;2023-03-07T18:25:35;99550.93;;;5.43;69.30
44872;BME280;30602;51.060;17.226;2023-03-07T18:29:21;99551.30;;;5.45;69.18
44872;BME280;30602;51.060;17.226;2023-03-07T18:33:21;99548.22;;;5.45;69.27
44872;BME280;30602;51.060;17.226;2023-03-07T18:36:42;99545.56;;;5.48;68.92
44872;BME280;30602;51.060;17.226;2023-03-07T18:40:24;99544.23;;;5.51;68.74
44872;BME280;30602;51.060;17.226;2023-03-07T18:43:59;99547.31;;;5.52;69.01
44872;BME280;30602;51.060;17.226;2023-03-07T18:47:43;99544.29;;;5.54;68.83
44872;BME280;30602;51.060;17.226;2023-03-07T18:51:26;99544.59;;;5.48;68.65
44872;BME280;30602;51.060;17.226;2023-03-07T18:54:50;99546.40;;;5.47;68.55
44872;BME280;30602;51.060;17.226;2023-03-07T18:58:13;99546.66;;;5.44;68.55
44872;BME280;30602;51.060;17.226;2023-03-07T19:02:07;99540.42;;;5.42;68.56
44872;BME280;30602;51.060;17.226;2023-03-07T19:05:32;99542.80;;;5.43;68.51
44872;BME280;30602;51.060;17.226;2023-03-07T19:09:05;99542.61;;;5.41;68.89
44872;BME280;30602;51.060;17.226;2023-03-07T19:12:33;99543.63;;;5.38;68.75
44872;BME280;30602;51.060;17.226;2023-03-07T19:16:18;99540.77;;;5.33;68.96
44872;BME280;30602;51.060;17.226;2023-03-07T19:19:44;99543.02;;;5.36;68.94
44872;BME280;30602;51.060;17.226;2023-03-07T19:23:09;99544.66;;;5.39;68.84
44872;BME280;30602;51.060;17.226;2023-03-07T19:27:02;99542.52;;;5.38;68.55
44872;BME280;30602;51.060;17.226;2023-03-07T19:31:11;99542.51;;;5.36;69.04
44872;BME280;30602;51.060;17.226;2023-03-07T19:34:58;99545.34;;;5.36;69.17
44872;BME280;30602;51.060;17.226;2023-03-07T19:38:25;99549.45;;;5.34;69.38
44872;BME280;30602;51.060;17.226;2023-03-07T19:42:21;99552.19;;;5.31;69.64
44872;BME280;30602;51.060;17.226;2023-03-07T19:45:44;99546.98;;;5.32;69.82
44872;BME280;30602;51.060;17.226;2023-03-07T19:49:07;99549.65;;;5.22;70.04
44872;BME280;30602;51.060;17.226;2023-03-07T19:52:49;99548.91;;;5.24;70.21
44872;BME280;30602;51.060;17.226;2023-03-07T19:56:35;99550.40;;;5.22;70.21
44872;BME280;30602;51.060;17.226;2023-03-07T19:59:58;99549.77;;;5.21;70.08
44872;BME280;30602;51.060;17.226;2023-03-07T20:03:40;99549.23;;;5.21;69.97
44872;BME280;30602;51.060;17.226;2023-03-07T20:07:34;99551.86;;;5.30;68.68
44872;BME280;30602;51.060;17.226;2023-03-07T20:14:30;99554.42;;;5.39;68.18
44872;BME280;30602;51.060;17.226;2023-03-07T20:18:13;99555.16;;;5.35;67.71
44872;BME280;30602;51.060;17.226;2023-03-07T20:22:02;99551.14;;;5.30;68.00
44872;BME280;30602;51.060;17.226;2023-03-07T20:25:20;99561.80;;;5.34;67.81
44872;BME280;30602;51.060;17.226;2023-03-07T20:29:34;99561.79;;;5.32;67.91
44872;BME280;30602;51.060;17.226;2023-03-07T20:33:11;99562.26;;;5.34;67.74
44872;BME280;30602;51.060;17.226;2023-03-07T20:36:41;99560.45;;;5.27;67.99
44872;BME280;30602;51.060;17.226;2023-03-07T20:40:04;99556.27;;;5.22;68.13
44872;BME280;30602;51.060;17.226;2023-03-07T20:43:26;99560.38;;;5.24;68.05
44872;BME280;30602;51.060;17.226;2023-03-07T20:47:39;99563.05;;;5.26;68.14
44872;BME280;30602;51.060;17.226;2023-03-07T20:51:25;99563.90;;;5.30;67.92
44872;BME280;30602;51.060;17.226;2023-03-07T20:54:57;99565.66;;;5.31;67.73
44872;BME280;30602;51.060;17.226;2023-03-07T21:02:42;99572.08;;;5.25;67.93
44872;BME280;30602;51.060;17.226;2023-03-07T21:06:25;99571.69;;;5.23;67.99
44872;BME280;30602;51.060;17.226;2023-03-07T21:09:52;99573.39;;;5.20;68.19
44872;BME280;30602;51.060;17.226;2023-03-07T21:13:37;99572.52;;;5.21;68.15
44872;BME280;30602;51.060;17.226;2023-03-07T21:17:11;99579.03;;;5.23;68.45
44872;BME280;30602;51.060;17.226;2023-03-07T21:20:38;99581.52;;;5.21;68.02
44872;BME280;30602;51.060;17.226;2023-03-07T21:24:24;99582.05;;;5.21;67.87
44872;BME280;30602;51.060;17.226;2023-03-07T21:27:48;99588.19;;;5.21;67.93
44872;BME280;30602;51.060;17.226;2023-03-07T21:31:43;99597.02;;;5.15;68.45
44872;BME280;30602;51.060;17.226;2023-03-07T21:35:42;99602.27;;;5.18;68.21
44872;BME280;30602;51.060;17.226;2023-03-07T21:39:27;99611.88;;;5.36;67.67
44872;BME280;30602;51.060;17.226;2023-03-07T21:42:50;99623.70;;;5.29;67.42
44872;BME280;30602;51.060;17.226;2023-03-07T21:46:39;99572.35;;;4.65;71.43
44872;BME280;30602;51.060;17.226;2023-03-07T21:50:20;99639.62;;;4.60;75.54
44872;BME280;30602;51.060;17.226;2023-03-07T21:53:46;99656.32;;;4.22;77.16
44872;BME280;30602;51.060;17.226;2023-03-07T21:57:18;99651.65;;;3.94;78.35
44872;BME280;30602;51.060;17.226;2023-03-07T22:00:40;99651.56;;;3.82;79.09
44872;BME280;30602;51.060;17.226;2023-03-07T22:04:17;99655.03;;;3.69;79.87
44872;BME280;30602;51.060;17.226;2023-03-07T22:07:52;99656.82;;;3.58;80.53
44872;BME280;30602;51.060;17.226;2023-03-07T22:11:12;99660.13;;;3.50;80.90
44872;BME280;30602;51.060;17.226;2023-03-07T22:14:54;99667.32;;;3.43;81.31
44872;BME280;30602;51.060;17.226;2023-03-07T22:18:35;99658.33;;;3.32;81.69
44872;BME280;30602;51.060;17.226;2023-03-07T22:23:03;99669.86;;;3.40;82.23
44872;BME280;30602;51.060;17.226;2023-03-07T22:26:42;99670.86;;;3.39;82.69
44872;BME280;30602;51.060;17.226;2023-03-07T22:30:15;99670.56;;;3.31;83.09
44872;BME280;30602;51.060;17.226;2023-03-07T22:34:17;99674.74;;;3.29;84.39
44872;BME280;30602;51.060;17.226;2023-03-07T22:38:33;99675.78;;;3.21;85.20
44872;BME280;30602;51.060;17.226;2023-03-07T22:42:05;99672.68;;;3.21;85.20
44872;BME280;30602;51.060;17.226;2023-03-07T22:45:45;99667.02;;;3.16;86.19
44872;BME280;30602;51.060;17.226;2023-03-07T22:49:19;99668.57;;;3.09;87.12
44872;BME280;30602;51.060;17.226;2023-03-07T22:52:43;99669.98;;;2.97;87.83
44872;BME280;30602;51.060;17.226;2023-03-07T22:56:16;99659.54;;;2.89;88.47
44872;BME280;30602;51.060;17.226;2023-03-07T22:59:58;99678.45;;;2.90;89.12
44872;BME280;30602;51.060;17.226;2023-03-07T23:04:15;99680.55;;;2.85;89.86
44872;BME280;30602;51.060;17.226;2023-03-07T23:07:56;99679.56;;;2.89;90.05
44872;BME280;30602;51.060;17.226;2023-03-07T23:11:17;99679.11;;;2.81;90.54
44872;BME280;30602;51.060;17.226;2023-03-07T23:14:42;99688.69;;;2.88;90.69
44872;BME280;30602;51.060;17.226;2023-03-07T23:18:36;99694.52;;;2.84;90.69
44872;BME280;30602;51.060;17.226;2023-03-07T23:22:15;99698.98;;;2.79;91.02
44872;BME280;30602;51.060;17.226;2023-03-07T23:25:40;99701.78;;;2.71;91.72
44872;BME280;30602;51.060;17.226;2023-03-07T23:29:55;99705.87;;;2.62;92.31
44872;BME280;30602;51.060;17.226;2023-03-07T23:33:54;99709.95;;;2.59;92.76
44872;BME280;30602;51.060;17.226;2023-03-07T23:37:25;99711.34;;;2.50;93.33
44872;BME280;30602;51.060;17.226;2023-03-07T23:41:01;99711.34;;;2.42;93.99
44872;BME280;30602;51.060;17.226;2023-03-07T23:44:41;99713.66;;;2.38;94.55
44872;BME280;30602;51.060;17.226;2023-03-07T23:48:48;99718.12;;;2.38;95.26